Time;durP1;ratioP1;P1;durP2;ratioP2;P2;SDS_P1;SDS_P2;PMS_P1;PMS_P2;Temp;Humidity;BMP_temperature;BMP_pressure;BME280_temperature;BME280_humidity;BME280_pressure;Samples;Min_cycle;Max_cycle;Signal;HPM_P1;HPM_P2
2023/09/11 00:00:38;;;;;;;26.05;18.83;;;20.90;99.90;;;;;;5051029;28;20033;-72
2023/09/11 00:03:04;;;;;;;24.98;20.08;;;20.90;99.90;;;;;;5051282;28;20091;-72
2023/09/11 00:05:30;;;;;;;23.95;19.90;;;20.90;99.90;;;;;;5051104;28;20037;-72
2023/09/11 00:07:55;;;;;;;26.20;19.23;;;20.90;99.90;;;;;;5051127;28;20047;-72
2023/09/11 00:10:21;;;;;;;27.73;18.08;;;20.80;99.90;;;;;;5050791;28;20044;-72
2023/09/11 00:12:46;;;;;;;22.85;17.73;;;20.80;99.90;;;;;;5051001;28;20397;-72
2023/09/11 00:15:12;;;;;;;27.15;19.80;;;20.80;99.90;;;;;;5050678;28;20048;-72
2023/09/11 00:17:38;;;;;;;24.08;19.25;;;20.80;99.90;;;;;;5054437;28;20037;-72
2023/09/11 00:20:10;;;;;;;28.00;19.08;;;20.70;99.90;;;;;;5054330;28;20036;-73
2023/09/11 00:22:36;;;;;;;32.67;21.43;;;20.70;99.90;;;;;;5020423;28;20048;-72
2023/09/11 00:25:02;;;;;;;24.67;19.20;;;20.70;99.90;;;;;;5054349;28;20037;-71
2023/09/11 00:27:28;;;;;;;27.92;18.70;;;20.70;99.90;;;;;;5054347;28;20511;-71
2023/09/11 00:29:54;;;;;;;29.23;20.42;;;20.70;99.90;;;;;;5054010;28;20593;-71
2023/09/11 00:32:19;;;;;;;28.20;19.92;;;20.60;99.90;;;;;;5054453;28;20041;-72
2023/09/11 00:34:45;;;;;;;30.45;20.25;;;20.60;99.90;;;;;;5054277;28;20044;-71
2023/09/11 00:37:10;;;;;;;25.35;19.95;;;20.60;99.90;;;;;;5054276;28;20091;-72
2023/09/11 00:39:36;;;;;;;26.77;20.35;;;20.60;99.90;;;;;;5053784;28;20067;-71
2023/09/11 00:42:01;;;;;;;28.95;19.02;;;20.50;99.90;;;;;;5054036;28;20440;-72
2023/09/11 00:44:28;;;;;;;26.60;20.60;;;20.50;99.90;;;;;;5036418;28;20033;-71
2023/09/11 00:46:54;;;;;;;24.42;21.42;;;20.50;99.90;;;;;;5054194;28;20060;-71
2023/09/11 00:49:20;;;;;;;25.30;20.45;;;20.50;99.90;;;;;;5053783;28;20507;-71
2023/09/11 00:51:48;;;;;;;32.42;23.33;;;20.50;99.90;;;;;;5054092;28;20041;-71
2023/09/11 00:54:14;;;;;;;27.40;21.15;;;20.40;99.90;;;;;;5053882;28;20112;-71
2023/09/11 00:56:40;;;;;;;30.10;22.65;;;20.40;99.90;;;;;;5053804;28;20131;-71
2023/09/11 00:59:06;;;;;;;31.75;21.35;;;20.40;99.90;;;;;;5053623;28;20053;-71
2023/09/11 01:01:32;;;;;;;28.65;20.88;;;20.30;99.90;;;;;;5053971;28;20451;-72
2023/09/11 01:03:58;;;;;;;25.92;20.75;;;20.20;99.90;;;;;;5053790;28;20061;-71
2023/09/11 01:06:24;;;;;;;25.23;20.95;;;20.20;99.90;;;;;;5053741;28;20090;-72
2023/09/11 01:08:51;;;;;;;27.70;20.85;;;20.20;99.90;;;;;;5053449;28;20131;-72
2023/09/11 01:11:19;;;;;;;34.70;22.33;;;20.20;99.90;;;;;;5053523;28;20504;-72
2023/09/11 01:13:45;;;;;;;38.67;22.83;;;20.10;99.90;;;;;;5053642;28;20041;-71
2023/09/11 01:16:39;;;;;;;27.65;21.77;;;20.10;99.90;;;;;;5053614;28;20037;-71
2023/09/11 01:19:51;;;;;;;31.58;22.13;;;20.10;99.90;;;;;;5052879;28;20048;-72
2023/09/11 01:22:41;;;;;;;32.05;21.42;;;20.10;99.90;;;;;;4937257;29;20046;-71
2023/09/11 01:25:34;;;;;;;26.50;21.90;;;20.10;99.90;;;;;;4952817;29;20526;-72
2023/09/11 01:28:18;;;;;;;30.60;22.23;;;20.10;99.90;;;;;;5033296;28;20052;-72
2023/09/11 01:30:45;;;;;;;26.08;20.20;;;20.00;99.90;;;;;;5053371;28;20483;-72
2023/09/11 01:33:12;;;;;;;27.88;21.42;;;20.00;99.90;;;;;;5053158;28;20385;-72
2023/09/11 01:35:38;;;;;;;28.65;21.85;;;20.00;99.90;;;;;;5053040;28;20036;-71
2023/09/11 01:38:04;;;;;;;31.92;22.08;;;20.10;99.90;;;;;;5052891;28;20466;-71
2023/09/11 01:40:34;;;;;;;31.25;21.77;;;20.00;99.90;;;;;;5052708;28;20036;-71
2023/09/11 01:43:02;;;;;;;30.27;21.60;;;20.00;99.90;;;;;;5053178;28;20029;-71
2023/09/11 01:45:30;;;;;;;30.52;21.42;;;19.90;99.90;;;;;;5034996;28;20557;-71
2023/09/11 01:47:57;;;;;;;31.95;21.23;;;20.00;99.90;;;;;;5034869;28;20171;-72
2023/09/11 01:50:23;;;;;;;28.27;20.70;;;20.00;99.90;;;;;;5052685;28;20049;-71
2023/09/11 01:52:50;;;;;;;28.58;21.90;;;20.00;99.90;;;;;;5034874;28;20461;-71
2023/09/11 01:55:16;;;;;;;33.65;22.02;;;19.90;99.90;;;;;;5052560;28;20504;-71
2023/09/11 01:57:42;;;;;;;30.88;20.85;;;19.90;99.90;;;;;;5052608;28;20120;-71
2023/09/11 02:00:09;;;;;;;25.05;20.25;;;19.90;99.90;;;;;;5034556;28;20525;-72
2023/09/11 02:02:35;;;;;;;28.17;21.35;;;19.90;99.90;;;;;;5034600;28;20075;-71
2023/09/11 02:05:02;;;;;;;25.30;20.00;;;19.90;99.90;;;;;;5034533;28;20069;-71
2023/09/11 02:07:28;;;;;;;28.52;19.38;;;19.90;99.90;;;;;;5034721;28;20041;-71
2023/09/11 02:09:53;;;;;;;28.90;19.80;;;19.90;99.90;;;;;;5034533;28;20044;-72
2023/09/11 02:12:19;;;;;;;28.05;20.20;;;19.90;99.90;;;;;;5052602;28;20044;-71
2023/09/11 02:14:44;;;;;;;25.73;20.95;;;19.80;99.90;;;;;;5052453;28;20401;-71
2023/09/11 02:17:10;;;;;;;29.15;20.58;;;19.80;99.90;;;;;;5052308;28;20452;-71
2023/09/11 02:19:35;;;;;;;26.02;19.55;;;19.80;99.90;;;;;;5051891;28;20041;-72
2023/09/11 02:22:01;;;;;;;24.17;20.13;;;19.80;99.90;;;;;;5051847;28;20514;-71
2023/09/11 02:24:27;;;;;;;25.10;18.85;;;19.80;99.90;;;;;;5051896;28;20047;-72
2023/09/11 02:26:55;;;;;;;30.15;19.27;;;19.70;99.90;;;;;;5052243;28;20041;-72
2023/09/11 02:29:20;;;;;;;24.80;18.27;;;19.70;99.90;;;;;;5051907;28;20053;-72
2023/09/11 02:31:46;;;;;;;27.20;18.17;;;19.70;99.90;;;;;;5052062;28;20388;-71
2023/09/11 02:34:12;;;;;;;25.27;18.15;;;19.60;99.90;;;;;;5034070;28;20041;-71
2023/09/11 02:36:37;;;;;;;30.17;19.48;;;19.60;99.90;;;;;;5052000;28;20086;-72
2023/09/11 02:39:03;;;;;;;24.55;18.33;;;19.60;99.90;;;;;;5033369;28;20051;-72
2023/09/11 02:41:29;;;;;;;27.30;19.80;;;19.60;99.90;;;;;;5034083;28;20459;-71
2023/09/11 02:43:55;;;;;;;24.80;19.90;;;19.60;99.90;;;;;;5051861;28;20107;-71
2023/09/11 02:46:20;;;;;;;27.92;19.45;;;19.60;99.90;;;;;;5034088;28;20041;-71
2023/09/11 02:48:48;;;;;;;27.75;18.85;;;19.60;99.90;;;;;;5051543;28;20095;-71
2023/09/11 02:51:14;;;;;;;28.83;19.90;;;19.50;99.90;;;;;;5051692;28;20416;-71
2023/09/11 02:53:40;;;;;;;28.13;20.55;;;19.50;99.90;;;;;;5051778;28;20044;-71
2023/09/11 02:56:06;;;;;;;26.60;19.52;;;19.40;99.90;;;;;;5051876;28;20415;-71
2023/09/11 02:58:31;;;;;;;27.88;20.10;;;19.50;99.90;;;;;;5051442;28;20094;-72
2023/09/11 03:01:04;;;;;;;22.27;18.52;;;19.50;99.90;;;;;;5051728;28;20412;-72
2023/09/11 03:03:30;;;;;;;28.38;20.35;;;19.50;99.90;;;;;;5051288;28;20059;-71
2023/09/11 03:05:57;;;;;;;26.50;19.08;;;19.50;99.90;;;;;;5051483;28;20032;-72
2023/09/11 03:08:23;;;;;;;28.70;19.95;;;19.50;99.90;;;;;;5051457;28;20068;-72
2023/09/11 03:10:49;;;;;;;29.42;20.27;;;19.50;99.90;;;;;;5051483;28;20034;-71
2023/09/11 03:13:15;;;;;;;30.20;21.98;;;19.50;99.90;;;;;;5051580;28;20044;-72
2023/09/11 03:15:42;;;;;;;26.60;21.27;;;19.50;99.90;;;;;;5051413;28;20047;-71
2023/09/11 03:18:08;;;;;;;26.33;20.35;;;19.50;99.90;;;;;;5051101;28;20098;-72
2023/09/11 03:20:34;;;;;;;27.13;18.38;;;19.50;99.90;;;;;;5051349;28;20619;-71
2023/09/11 03:23:00;;;;;;;23.63;18.35;;;19.50;99.90;;;;;;5051647;28;20072;-71
2023/09/11 03:25:26;;;;;;;27.52;20.40;;;19.40;99.90;;;;;;5051171;28;20037;-72
2023/09/11 03:27:52;;;;;;;24.75;20.10;;;19.40;99.90;;;;;;5051456;28;20075;-71
2023/09/11 03:30:18;;;;;;;28.63;20.75;;;19.30;99.90;;;;;;5051031;28;20503;-72
2023/09/11 03:32:43;;;;;;;26.45;18.73;;;19.40;99.90;;;;;;5051414;28;20125;-72
2023/09/11 03:35:09;;;;;;;32.22;19.50;;;19.30;99.90;;;;;;5051041;28;20116;-71
2023/09/11 03:37:35;;;;;;;24.90;18.92;;;19.30;99.90;;;;;;5033610;28;20044;-71
2023/09/11 03:40:06;;;;;;;28.80;19.42;;;19.40;99.90;;;;;;5050756;28;20541;-71
2023/09/11 03:42:32;;;;;;;29.40;20.77;;;19.40;99.90;;;;;;5051380;28;20097;-72
2023/09/11 03:44:58;;;;;;;34.17;18.75;;;19.40;99.90;;;;;;5033235;28;20496;-71
2023/09/11 03:47:39;;;;;;;31.83;18.58;;;19.40;99.90;;;;;;5051147;28;20040;-73
2023/09/11 03:50:06;;;;;;;28.08;18.70;;;19.40;99.90;;;;;;5033254;28;20032;-72
2023/09/11 03:52:32;;;;;;;31.52;20.27;;;19.30;99.90;;;;;;5054723;28;20033;-72
2023/09/11 03:54:57;;;;;;;29.17;20.25;;;19.30;99.90;;;;;;5055028;28;20098;-72
2023/09/11 03:57:23;;;;;;;29.67;19.13;;;19.30;99.90;;;;;;5054852;28;20083;-73
2023/09/11 03:59:49;;;;;;;24.73;19.20;;;19.30;99.90;;;;;;5054615;28;20041;-72
2023/09/11 04:02:14;;;;;;;33.17;19.65;;;19.30;99.90;;;;;;5037269;28;20041;-72
2023/09/11 04:04:40;;;;;;;32.88;21.92;;;19.30;99.90;;;;;;5036894;28;20036;-72
2023/09/11 04:07:05;;;;;;;29.33;20.20;;;19.20;99.90;;;;;;5054915;28;20033;-72
2023/09/11 04:09:32;;;;;;;31.27;20.65;;;19.30;99.90;;;;;;5054499;28;20123;-72
2023/09/11 04:12:00;;;;;;;27.98;20.23;;;19.20;99.90;;;;;;5054738;28;20504;-72
2023/09/11 04:14:25;;;;;;;31.52;21.02;;;19.20;99.90;;;;;;5054511;28;20051;-72
2023/09/11 04:16:51;;;;;;;28.70;21.30;;;19.20;99.90;;;;;;5055080;28;20041;-73
2023/09/11 04:19:16;;;;;;;30.88;20.65;;;19.20;99.90;;;;;;5053830;28;20044;-72
2023/09/11 04:21:42;;;;;;;32.65;21.65;;;19.20;99.90;;;;;;5054567;28;20083;-73
2023/09/11 04:24:12;;;;;;;27.00;20.45;;;19.20;99.90;;;;;;5052142;28;20083;-73
2023/09/11 04:26:39;;;;;;;29.15;19.25;;;19.20;99.90;;;;;;5045034;28;20048;-72
2023/09/11 04:29:05;;;;;;;33.08;20.55;;;19.20;99.90;;;;;;5054062;28;20037;-73
2023/09/11 04:31:30;;;;;;;31.00;20.02;;;19.20;99.90;;;;;;5054457;28;20059;-73
2023/09/11 04:33:56;;;;;;;38.92;21.05;;;19.20;99.90;;;;;;5054266;28;20412;-72
2023/09/11 04:36:22;;;;;;;32.25;20.25;;;19.30;99.90;;;;;;5054228;28;20451;-72
2023/09/11 04:38:47;;;;;;;36.33;22.60;;;19.20;99.90;;;;;;5053944;28;20393;-73
2023/09/11 04:41:14;;;;;;;31.75;21.02;;;19.20;99.90;;;;;;5054212;28;20033;-72
2023/09/11 04:43:39;;;;;;;30.42;21.40;;;19.10;99.90;;;;;;5053927;28;20381;-72
2023/09/11 04:46:05;;;;;;;30.20;22.50;;;19.20;99.90;;;;;;5053888;28;20048;-72
2023/09/11 04:48:30;;;;;;;28.38;21.52;;;19.10;99.90;;;;;;5053819;28;20415;-73
2023/09/11 04:50:56;;;;;;;36.50;22.63;;;19.10;99.90;;;;;;5052398;28;20088;-72
2023/09/11 04:53:21;;;;;;;30.38;22.30;;;19.10;99.90;;;;;;5051724;28;20060;-72
2023/09/11 04:55:47;;;;;;;35.45;24.45;;;19.10;99.90;;;;;;5053388;28;20041;-72
2023/09/11 04:58:13;;;;;;;32.72;23.42;;;19.10;99.90;;;;;;5053276;28;20128;-72
2023/09/11 05:00:40;;;;;;;35.17;23.35;;;19.10;99.90;;;;;;5053486;28;20107;-72
2023/09/11 05:03:06;;;;;;;32.15;22.35;;;19.10;99.90;;;;;;5053738;28;20124;-71
2023/09/11 05:05:38;;;;;;;35.35;22.83;;;19.10;99.90;;;;;;5052360;28;20491;-71
2023/09/11 05:08:05;;;;;;;37.13;21.83;;;19.00;99.90;;;;;;5053685;28;20045;-72
2023/09/11 05:10:31;;;;;;;30.20;22.98;;;19.00;99.90;;;;;;5053550;28;20124;-73
2023/09/11 05:12:57;;;;;;;35.13;22.88;;;19.00;99.90;;;;;;5053422;28;20087;-72
2023/09/11 05:15:23;;;;;;;36.97;23.50;;;19.00;99.90;;;;;;5053671;28;20036;-72
2023/09/11 05:17:49;;;;;;;31.90;22.48;;;19.10;99.90;;;;;;5053402;28;20059;-72
2023/09/11 05:20:15;;;;;;;30.48;22.92;;;19.00;99.90;;;;;;5053227;28;20051;-73
2023/09/11 05:22:41;;;;;;;31.25;23.15;;;19.00;99.90;;;;;;5052156;28;20044;-73
2023/09/11 05:25:07;;;;;;;37.10;24.45;;;19.10;99.90;;;;;;5053136;28;20114;-73
2023/09/11 05:27:33;;;;;;;39.53;22.50;;;19.10;99.90;;;;;;5053179;28;20075;-72
2023/09/11 05:29:58;;;;;;;36.40;23.50;;;19.10;99.90;;;;;;5053067;28;20068;-72
2023/09/11 05:32:25;;;;;;;30.83;21.83;;;19.10;99.90;;;;;;5052521;28;20040;-72
2023/09/11 05:34:51;;;;;;;40.95;25.17;;;19.10;99.90;;;;;;5053123;28;20162;-71
2023/09/11 05:37:17;;;;;;;33.60;23.77;;;19.10;99.90;;;;;;5053025;28;20507;-72
2023/09/11 05:39:43;;;;;;;35.00;22.10;;;19.00;99.90;;;;;;5052620;28;20043;-72
2023/09/11 05:42:10;;;;;;;41.53;26.70;;;19.10;99.90;;;;;;5052680;28;20496;-72
2023/09/11 05:44:36;;;;;;;33.75;21.92;;;19.20;99.90;;;;;;5053080;28;20064;-72
2023/09/11 05:47:02;;;;;;;30.98;22.00;;;19.30;99.90;;;;;;5052970;28;20073;-70
2023/09/11 05:49:28;;;;;;;34.65;22.70;;;19.20;99.90;;;;;;5052601;28;20040;-74
2023/09/11 05:51:55;;;;;;;38.10;23.10;;;19.30;99.90;;;;;;5052700;28;20411;-73
2023/09/11 05:54:20;;;;;;;39.75;21.70;;;19.30;99.90;;;;;;5052844;28;20041;-75
2023/09/11 05:56:46;;;;;;;34.45;21.75;;;19.40;99.90;;;;;;5034932;28;20443;-74
2023/09/11 05:59:11;;;;;;;32.08;22.40;;;19.40;99.90;;;;;;5052177;28;20048;-74
2023/09/11 06:01:37;;;;;;;33.85;21.75;;;19.40;99.90;;;;;;5052543;28;20033;-75
2023/09/11 06:04:03;;;;;;;34.00;22.85;;;19.50;99.90;;;;;;5052516;28;20112;-75
2023/09/11 06:06:29;;;;;;;31.25;22.58;;;19.50;99.90;;;;;;5034631;28;20055;-74
2023/09/11 06:08:55;;;;;;;32.80;21.77;;;19.60;99.90;;;;;;5052215;28;20047;-74
2023/09/11 06:11:20;;;;;;;33.63;22.98;;;19.70;99.90;;;;;;5052260;28;20128;-74
2023/09/11 06:13:48;;;;;;;33.53;21.55;;;19.90;99.90;;;;;;5034110;28;20128;-73
2023/09/11 06:16:14;;;;;;;32.97;20.70;;;20.00;99.90;;;;;;5052520;28;20045;-73
2023/09/11 06:18:40;;;;;;;34.85;20.75;;;20.10;99.90;;;;;;5034015;28;20233;-73
2023/09/11 06:21:06;;;;;;;36.58;20.63;;;20.20;99.90;;;;;;5052277;28;20040;-73
2023/09/11 06:23:31;;;;;;;33.95;21.70;;;20.30;99.90;;;;;;5051960;28;20481;-73
2023/09/11 06:25:57;;;;;;;36.40;20.45;;;20.30;99.90;;;;;;5052008;28;20076;-73
2023/09/11 06:28:22;;;;;;;31.88;18.77;;;20.50;99.90;;;;;;5033899;28;20041;-73
2023/09/11 06:30:48;;;;;;;31.50;20.42;;;20.60;99.90;;;;;;5052033;28;20170;-73
2023/09/11 06:33:13;;;;;;;34.28;19.92;;;20.80;99.90;;;;;;5052054;28;20040;-73
2023/09/11 06:35:39;;;;;;;31.48;20.58;;;20.90;99.90;;;;;;5052012;28;20112;-73
2023/09/11 06:38:05;;;;;;;29.55;20.40;;;21.00;99.90;;;;;;5051854;28;20045;-73
2023/09/11 06:40:30;;;;;;;31.67;21.58;;;21.20;99.90;;;;;;5051633;28;20039;-73
2023/09/11 06:42:57;;;;;;;29.52;19.92;;;21.40;99.90;;;;;;5052086;28;20040;-73
2023/09/11 06:45:22;;;;;;;28.92;18.77;;;21.50;99.90;;;;;;5051911;28;20072;-72
2023/09/11 06:47:48;;;;;;;37.67;19.90;;;21.70;99.90;;;;;;5051882;28;20535;-72
2023/09/11 06:50:14;;;;;;;28.42;19.75;;;21.90;99.90;;;;;;5051626;28;20036;-72
2023/09/11 06:52:40;;;;;;;30.42;19.98;;;22.00;99.90;;;;;;5033932;28;20040;-73
2023/09/11 06:55:10;;;;;;;29.15;18.73;;;22.30;99.90;;;;;;5033764;28;20075;-72
2023/09/11 06:57:41;;;;;;;33.30;18.35;;;22.40;99.90;;;;;;5051632;28;20037;-72
2023/09/11 07:00:11;;;;;;;26.75;18.52;;;22.50;99.90;;;;;;5051492;28;20428;-72
2023/09/11 07:02:38;;;;;;;34.72;17.92;;;22.70;99.90;;;;;;5051676;28;20047;-74
2023/09/11 07:05:04;;;;;;;29.25;17.58;;;22.70;99.90;;;;;;5051484;28;20033;-73
2023/09/11 07:07:30;;;;;;;28.77;18.90;;;22.70;99.90;;;;;;5051454;28;20515;-73
2023/09/11 07:09:56;;;;;;;40.22;18.63;;;22.70;99.90;;;;;;5051604;28;20109;-73
2023/09/11 07:12:22;;;;;;;34.58;19.20;;;22.80;99.90;;;;;;5051809;28;20547;-73
2023/09/11 07:14:48;;;;;;;31.05;17.52;;;22.90;99.90;;;;;;5033679;28;20524;-73
2023/09/11 07:17:13;;;;;;;32.30;17.02;;;23.00;99.90;;;;;;5051664;28;20053;-72
2023/09/11 07:19:39;;;;;;;34.95;19.33;;;23.10;99.90;;;;;;5051191;28;20041;-74
2023/09/11 07:22:05;;;;;;;32.60;17.80;;;23.20;99.90;;;;;;5051481;28;20462;-73
2023/09/11 07:24:30;;;;;;;26.85;16.92;;;23.40;99.90;;;;;;5051222;28;20045;-74
2023/09/11 07:26:56;;;;;;;30.30;18.52;;;23.40;99.90;;;;;;5054191;28;20036;-74
2023/09/11 07:29:26;;;;;;;32.25;18.67;;;23.40;99.90;;;;;;5055389;28;20412;-73
2023/09/11 07:31:52;;;;;;;29.55;17.30;;;23.70;99.90;;;;;;5037692;28;20048;-73
2023/09/11 07:34:17;;;;;;;25.13;16.20;;;23.90;99.90;;;;;;5037563;28;20041;-72
2023/09/11 07:36:43;;;;;;;25.17;15.55;;;24.10;99.90;;;;;;5055329;28;20045;-74
2023/09/11 07:39:09;;;;;;;31.83;17.27;;;24.20;99.90;;;;;;5037135;28;20049;-73
2023/09/11 07:41:35;;;;;;;25.02;16.67;;;24.30;99.90;;;;;;5037401;28;20033;-73
2023/09/11 07:44:00;;;;;;;28.40;15.82;;;24.60;99.90;;;;;;5055176;28;20115;-74
2023/09/11 07:46:33;;;;;;;26.35;15.88;;;24.70;99.90;;;;;;5037320;28;20033;-74
2023/09/11 07:48:59;;;;;;;24.25;16.13;;;24.90;99.90;;;;;;5037329;28;20153;-74
2023/09/11 07:51:25;;;;;;;26.17;15.65;;;25.00;99.90;;;;;;5037158;28;20561;-73
2023/09/11 07:53:51;;;;;;;24.60;15.65;;;24.90;99.90;;;;;;5037045;28;20526;-72
2023/09/11 07:56:16;;;;;;;26.70;15.30;;;25.10;99.90;;;;;;5037086;28;20045;-73
2023/09/11 07:58:42;;;;;;;27.92;15.73;;;25.20;99.90;;;;;;5036599;28;20037;-73
2023/09/11 08:01:08;;;;;;;26.92;15.00;;;25.30;99.90;;;;;;5036987;28;20095;-72
2023/09/11 08:03:34;;;;;;;26.17;15.95;;;25.40;99.90;;;;;;5036812;28;20462;-72
2023/09/11 08:06:01;;;;;;;24.40;16.15;;;25.50;99.90;;;;;;5037219;28;20373;-72
2023/09/11 08:08:27;;;;;;;28.70;14.10;;;25.60;99.90;;;;;;5036566;28;20056;-72
2023/09/11 08:10:53;;;;;;;27.77;14.73;;;25.80;99.90;;;;;;5054951;28;20626;-72
2023/09/11 08:13:18;;;;;;;24.55;15.27;;;25.80;99.90;;;;;;5037173;28;20079;-73
2023/09/11 08:15:44;;;;;;;21.92;15.40;;;26.00;99.90;;;;;;5036962;28;20056;-73
2023/09/11 08:18:09;;;;;;;23.17;14.73;;;26.10;99.90;;;;;;5036346;28;20503;-72
2023/09/11 08:20:36;;;;;;;24.60;14.52;;;26.20;99.90;;;;;;5054489;28;20044;-73
2023/09/11 08:23:01;;;;;;;24.58;13.10;;;26.40;99.90;;;;;;5036608;28;20504;-73
2023/09/11 08:25:27;;;;;;;26.58;13.40;;;26.60;99.90;;;;;;5036409;28;20114;-73
2023/09/11 08:27:53;;;;;;;20.33;11.85;;;26.70;99.90;;;;;;5054516;28;20072;-72
2023/09/11 08:30:19;;;;;;;21.15;11.65;;;26.80;99.90;;;;;;5054215;28;20432;-72
2023/09/11 08:32:45;;;;;;;18.50;11.25;;;26.90;99.90;;;;;;5054393;28;20033;-73
2023/09/11 08:35:10;;;;;;;21.23;10.60;;;27.10;99.90;;;;;;5054157;28;20519;-72
2023/09/11 08:37:36;;;;;;;23.58;12.70;;;27.20;99.90;;;;;;5053852;28;20112;-72
2023/09/11 08:40:02;;;;;;;16.52;11.15;;;27.30;99.90;;;;;;5053743;28;20036;-72
2023/09/11 08:42:27;;;;;;;21.70;11.52;;;27.40;99.90;;;;;;5054360;28;20167;-72
2023/09/11 08:44:53;;;;;;;22.90;11.85;;;27.30;99.90;;;;;;5036203;28;20029;-72
2023/09/11 08:47:22;;;;;;;26.48;13.32;;;27.40;99.90;;;;;;5054201;28;20037;-72
2023/09/11 08:49:54;;;;;;;22.08;12.57;;;27.30;99.90;;;;;;5053753;28;20056;-73
2023/09/11 08:52:19;;;;;;;17.55;10.90;;;27.50;99.90;;;;;;5054187;28;20107;-71
2023/09/11 08:54:49;;;;;;;24.70;10.68;;;27.70;99.90;;;;;;5054176;28;20040;-71
2023/09/11 08:57:15;;;;;;;16.00;10.05;;;27.70;99.90;;;;;;5054056;28;20049;-71
2023/09/11 08:59:44;;;;;;;16.65;9.30;;;27.80;99.90;;;;;;5053477;28;20053;-72
2023/09/11 09:02:11;;;;;;;19.98;9.45;;;28.00;99.90;;;;;;5036104;28;20037;-71
2023/09/11 09:04:40;;;;;;;15.20;9.15;;;28.10;99.90;;;;;;5053941;28;20060;-72
2023/09/11 09:07:09;;;;;;;14.13;7.43;;;28.30;99.90;;;;;;5053918;28;20100;-72
2023/09/11 09:09:35;;;;;;;14.45;7.32;;;28.50;99.90;;;;;;5053601;28;20041;-72
2023/09/11 09:12:02;;;;;;;22.25;7.50;;;28.60;99.90;;;;;;5035800;28;20423;-71
2023/09/11 09:14:29;;;;;;;17.83;8.45;;;28.60;99.90;;;;;;5053520;28;20060;-71
2023/09/11 09:16:56;;;;;;;16.08;7.88;;;28.60;99.90;;;;;;5053392;28;20040;-72
2023/09/11 09:19:22;;;;;;;13.60;7.70;;;28.60;99.90;;;;;;5053256;28;20388;-72
2023/09/11 09:22:04;;;;;;;19.55;8.35;;;28.80;99.90;;;;;;5053535;28;20043;-72
2023/09/11 09:24:50;;;;;;;16.25;7.30;;;28.80;99.90;;;;;;5053211;28;20095;-72
2023/09/11 09:27:16;;;;;;;12.90;6.88;;;28.90;99.90;;;;;;5052725;28;20434;-72
2023/09/11 09:29:42;;;;;;;11.85;6.30;;;28.90;99.90;;;;;;5053173;28;20048;-72
2023/09/11 09:32:09;;;;;;;14.02;6.57;;;28.80;99.90;;;;;;5053427;28;20060;-72
2023/09/11 09:34:36;;;;;;;12.38;7.40;;;28.80;99.90;;;;;;5053184;28;20178;-71
2023/09/11 09:37:02;;;;;;;15.55;7.28;;;28.70;99.90;;;;;;5053148;28;20045;-71
2023/09/11 09:39:29;;;;;;;14.57;7.50;;;28.60;99.90;;;;;;5052643;28;20626;-72
2023/09/11 09:42:01;;;;;;;16.77;7.45;;;28.60;99.30;;;;;;5052836;28;20075;-71
2023/09/11 09:44:43;;;;;;;13.07;7.45;;;28.60;99.70;;;;;;5035352;28;20037;-71
2023/09/11 09:47:15;;;;;;;17.13;8.07;;;28.50;99.90;;;;;;5053067;28;20041;-71
2023/09/11 09:49:47;;;;;;;14.03;6.83;;;28.40;99.90;;;;;;5051781;28;20048;-71
2023/09/11 09:52:13;;;;;;;14.82;8.73;;;28.30;99.90;;;;;;5052777;28;20033;-71
2023/09/11 09:54:43;;;;;;;11.55;6.65;;;28.20;99.90;;;;;;5035141;28;20039;-72
2023/09/11 09:57:10;;;;;;;12.90;7.15;;;28.30;99.90;;;;;;5052931;28;20117;-71
2023/09/11 09:59:36;;;;;;;16.55;8.00;;;28.30;99.90;;;;;;5052050;28;20560;-71
2023/09/11 10:02:02;;;;;;;14.23;7.82;;;28.30;99.90;;;;;;5051344;28;20037;-72
2023/09/11 10:04:31;;;;;;;12.75;8.35;;;28.10;99.90;;;;;;5034060;28;20041;-71
2023/09/11 10:06:58;;;;;;;13.85;8.32;;;28.00;99.90;;;;;;5051975;28;20400;-71
2023/09/11 10:09:24;;;;;;;18.80;8.60;;;27.90;99.90;;;;;;5052030;28;20116;-71
2023/09/11 10:11:51;;;;;;;13.95;7.45;;;27.80;99.90;;;;;;5052388;28;20167;-71
2023/09/11 10:14:18;;;;;;;11.40;7.28;;;27.70;99.90;;;;;;5051930;28;20037;-71
2023/09/11 10:16:45;;;;;;;12.43;8.05;;;27.70;99.90;;;;;;5052103;28;20059;-71
2023/09/11 10:19:12;;;;;;;13.02;8.25;;;27.70;99.90;;;;;;5051285;28;20041;-71
2023/09/11 10:21:38;;;;;;;13.43;8.27;;;27.60;99.90;;;;;;5034475;28;20492;-71
2023/09/11 10:24:05;;;;;;;13.63;8.52;;;27.60;99.90;;;;;;5051669;28;20534;-71
2023/09/11 10:26:59;;;;;;;16.27;9.68;;;27.60;99.90;;;;;;5051903;28;20079;-71
2023/09/11 10:29:48;;;;;;;12.07;8.25;;;27.50;99.90;;;;;;5047626;28;20049;-71
2023/09/11 10:32:34;;;;;;;16.33;9.40;;;27.60;99.90;;;;;;5051939;28;20147;-71
2023/09/11 10:35:02;;;;;;;13.30;7.70;;;27.50;99.90;;;;;;5039132;28;20116;-72
2023/09/11 10:37:31;;;;;;;13.77;8.05;;;27.50;99.90;;;;;;5051676;28;20103;-71
2023/09/11 10:39:59;;;;;;;10.63;8.02;;;27.60;99.90;;;;;;5033394;28;20412;-71
2023/09/11 10:42:25;;;;;;;15.55;8.52;;;27.70;99.90;;;;;;5051384;28;20112;-71
2023/09/11 10:44:53;;;;;;;13.38;8.70;;;27.70;99.90;;;;;;5050654;28;20585;-70
2023/09/11 10:47:19;;;;;;;12.73;8.48;;;27.70;99.90;;;;;;5051304;28;20032;-71
2023/09/11 10:49:49;;;;;;;15.55;7.93;;;27.90;99.90;;;;;;5048767;28;20040;-71
2023/09/11 10:52:16;;;;;;;11.02;8.85;;;28.10;99.90;;;;;;5029694;28;20124;-70
2023/09/11 10:54:42;;;;;;;13.65;7.95;;;28.20;99.90;;;;;;5029967;28;20095;-71
2023/09/11 10:57:08;;;;;;;17.13;9.82;;;28.30;99.90;;;;;;5031064;28;20045;-70
2023/09/11 10:59:34;;;;;;;15.52;8.70;;;28.40;99.90;;;;;;5030225;28;20046;-71
2023/09/11 11:02:01;;;;;;;19.33;9.32;;;28.50;99.90;;;;;;5013512;28;20069;-71
2023/09/11 11:04:31;;;;;;;13.77;9.20;;;28.50;99.90;;;;;;5031388;28;20037;-71
2023/09/11 11:06:59;;;;;;;12.80;8.98;;;28.50;99.90;;;;;;5031706;28;20037;-71
2023/09/11 11:09:25;;;;;;;13.85;8.88;;;28.50;99.90;;;;;;5031413;28;20488;-71
2023/09/11 11:11:51;;;;;;;14.15;9.57;;;28.40;99.90;;;;;;5031848;28;20094;-70
2023/09/11 11:14:20;;;;;;;14.73;8.65;;;28.50;99.90;;;;;;5031634;28;20045;-71
2023/09/11 11:17:04;;;;;;;16.20;8.73;;;28.40;99.90;;;;;;5031706;28;20076;-71
2023/09/11 11:19:45;;;;;;;12.57;7.53;;;28.50;99.90;;;;;;4997189;28;20052;-71
2023/09/11 11:22:29;;;;;;;16.05;8.68;;;28.40;99.90;;;;;;5037020;28;20025;-70
2023/09/11 11:24:55;;;;;;;17.70;8.05;;;28.30;99.90;;;;;;5036576;28;20041;-70
2023/09/11 11:27:21;;;;;;;11.85;8.57;;;28.30;99.90;;;;;;5031566;28;20090;-71
2023/09/11 11:29:47;;;;;;;13.80;8.73;;;28.20;99.90;;;;;;5041337;28;20041;-71
2023/09/11 11:32:14;;;;;;;11.68;7.93;;;28.20;99.90;;;;;;5013825;28;20041;-71
2023/09/11 11:34:43;;;;;;;11.32;8.77;;;28.10;99.90;;;;;;5031529;28;20049;-71
2023/09/11 11:37:10;;;;;;;14.63;9.35;;;28.20;99.90;;;;;;5031572;28;20408;-71
2023/09/11 11:39:39;;;;;;;15.60;9.00;;;28.20;99.90;;;;;;5031043;28;20049;-71
2023/09/11 11:42:07;;;;;;;15.00;8.80;;;28.10;99.90;;;;;;5013542;28;20041;-71
2023/09/11 11:44:34;;;;;;;12.25;8.32;;;28.20;99.90;;;;;;5031224;28;20404;-71
2023/09/11 11:47:00;;;;;;;13.07;7.93;;;28.10;99.90;;;;;;5031550;28;20076;-71
2023/09/11 11:49:26;;;;;;;13.70;8.20;;;28.20;99.90;;;;;;5031009;28;20068;-71
2023/09/11 11:51:51;;;;;;;9.93;7.28;;;28.20;99.90;;;;;;5031290;28;20095;-71
2023/09/11 11:54:25;;;;;;;14.55;8.55;;;28.10;99.90;;;;;;5031333;28;20045;-71
2023/09/11 11:57:01;;;;;;;15.38;8.75;;;28.10;99.90;;;;;;5031363;28;20111;-71
2023/09/11 11:59:31;;;;;;;13.38;9.15;;;28.20;99.90;;;;;;5013109;28;20049;-71
2023/09/11 12:01:56;;;;;;;13.57;8.95;;;28.10;99.90;;;;;;5031355;28;20033;-71
2023/09/11 12:04:24;;;;;;;14.15;9.63;;;28.10;99.90;;;;;;5031046;28;20043;-71
2023/09/11 12:06:55;;;;;;;18.60;9.02;;;28.20;99.90;;;;;;5013500;28;20469;-71
2023/09/11 12:09:22;;;;;;;12.18;8.00;;;28.30;99.90;;;;;;5030912;28;20052;-71
2023/09/11 12:11:49;;;;;;;9.90;7.32;;;28.20;99.90;;;;;;5031692;28;20060;-71
2023/09/11 12:14:16;;;;;;;13.52;7.72;;;28.20;99.90;;;;;;5034882;28;20051;-71
2023/09/11 12:16:42;;;;;;;11.77;7.38;;;28.10;99.90;;;;;;5034955;28;20046;-71
2023/09/11 12:19:08;;;;;;;10.55;7.55;;;28.10;99.90;;;;;;5034300;28;20382;-71
2023/09/11 12:21:34;;;;;;;13.38;8.18;;;28.10;99.90;;;;;;5034765;28;20037;-71
2023/09/11 12:24:01;;;;;;;12.32;7.80;;;28.00;99.90;;;;;;5034486;28;20080;-71
2023/09/11 12:26:30;;;;;;;13.55;7.90;;;28.20;99.90;;;;;;5034584;28;20377;-71
2023/09/11 12:28:56;;;;;;;12.63;7.85;;;28.10;99.90;;;;;;5016503;28;20161;-71
2023/09/11 12:31:22;;;;;;;16.55;9.07;;;28.20;99.90;;;;;;5034635;28;20113;-71